sensor_id;sensor_type;location;lat;lon;timestamp;P1;durP1;ratioP1;P2;durP2;ratioP2
51566;SDS011;37657;53.182;5.638;2023-05-07T00:02:20;19.67;;;17.38;;
51566;SDS011;37657;53.182;5.638;2023-05-07T00:04:46;22.58;;;17.80;;
51566;SDS011;37657;53.182;5.638;2023-05-07T00:07:12;19.85;;;17.80;;
51566;SDS011;37657;53.182;5.638;2023-05-07T00:09:37;20.55;;;18.60;;
51566;SDS011;37657;53.182;5.638;2023-05-07T00:12:03;17.90;;;16.20;;
51566;SDS011;37657;53.182;5.638;2023-05-07T00:14:29;19.35;;;16.98;;
51566;SDS011;37657;53.182;5.638;2023-05-07T00:16:54;23.27;;;19.73;;
51566;SDS011;37657;53.182;5.638;2023-05-07T00:19:20;22.25;;;18.73;;
51566;SDS011;37657;53.182;5.638;2023-05-07T00:21:46;21.08;;;19.08;;
51566;SDS011;37657;53.182;5.638;2023-05-07T00:24:12;22.00;;;18.45;;
51566;SDS011;37657;53.182;5.638;2023-05-07T00:26:37;21.90;;;19.55;;
51566;SDS011;37657;53.182;5.638;2023-05-07T00:29:03;29.23;;;19.88;;
51566;SDS011;37657;53.182;5.638;2023-05-07T00:31:28;20.13;;;18.05;;
51566;SDS011;37657;53.182;5.638;2023-05-07T00:33:54;21.52;;;19.15;;
51566;SDS011;37657;53.182;5.638;2023-05-07T00:36:19;22.40;;;20.08;;
51566;SDS011;37657;53.182;5.638;2023-05-07T00:38:45;36.22;;;19.60;;
51566;SDS011;37657;53.182;5.638;2023-05-07T00:41:10;25.90;;;21.30;;
51566;SDS011;37657;53.182;5.638;2023-05-07T00:43:36;21.02;;;18.55;;
51566;SDS011;37657;53.182;5.638;2023-05-07T00:46:02;20.73;;;18.50;;
51566;SDS011;37657;53.182;5.638;2023-05-07T00:48:28;24.80;;;18.63;;
51566;SDS011;37657;53.182;5.638;2023-05-07T00:50:54;18.00;;;16.15;;
51566;SDS011;37657;53.182;5.638;2023-05-07T00:53:20;21.90;;;17.65;;
51566;SDS011;37657;53.182;5.638;2023-05-07T00:55:46;22.90;;;19.25;;
51566;SDS011;37657;53.182;5.638;2023-05-07T00:58:12;25.77;;;20.58;;
51566;SDS011;37657;53.182;5.638;2023-05-07T01:00:37;20.75;;;18.58;;
51566;SDS011;37657;53.182;5.638;2023-05-07T01:03:03;19.90;;;17.77;;
51566;SDS011;37657;53.182;5.638;2023-05-07T01:05:29;21.27;;;17.45;;
51566;SDS011;37657;53.182;5.638;2023-05-07T01:07:55;25.80;;;19.45;;
51566;SDS011;37657;53.182;5.638;2023-05-07T01:10:22;20.58;;;18.45;;
51566;SDS011;37657;53.182;5.638;2023-05-07T01:12:48;29.15;;;19.02;;
51566;SDS011;37657;53.182;5.638;2023-05-07T01:15:15;20.50;;;18.52;;
51566;SDS011;37657;53.182;5.638;2023-05-07T01:17:42;20.25;;;18.05;;
51566;SDS011;37657;53.182;5.638;2023-05-07T01:20:09;23.40;;;19.80;;
51566;SDS011;37657;53.182;5.638;2023-05-07T01:22:35;20.02;;;17.88;;
51566;SDS011;37657;53.182;5.638;2023-05-07T01:25:05;21.70;;;18.38;;
51566;SDS011;37657;53.182;5.638;2023-05-07T01:27:35;22.90;;;19.58;;
51566;SDS011;37657;53.182;5.638;2023-05-07T01:30:01;20.02;;;17.95;;
51566;SDS011;37657;53.182;5.638;2023-05-07T01:32:41;21.00;;;17.73;;
51566;SDS011;37657;53.182;5.638;2023-05-07T01:35:18;23.73;;;20.23;;
51566;SDS011;37657;53.182;5.638;2023-05-07T01:37:45;18.55;;;16.60;;
51566;SDS011;37657;53.182;5.638;2023-05-07T01:40:12;20.45;;;17.95;;
51566;SDS011;37657;53.182;5.638;2023-05-07T01:42:38;18.55;;;16.70;;
51566;SDS011;37657;53.182;5.638;2023-05-07T01:45:05;19.70;;;17.70;;
51566;SDS011;37657;53.182;5.638;2023-05-07T01:47:31;20.88;;;17.98;;
51566;SDS011;37657;53.182;5.638;2023-05-07T01:49:57;19.20;;;17.20;;
51566;SDS011;37657;53.182;5.638;2023-05-07T01:52:23;19.02;;;16.92;;
51566;SDS011;37657;53.182;5.638;2023-05-07T01:54:50;22.13;;;19.45;;
51566;SDS011;37657;53.182;5.638;2023-05-07T01:57:15;25.15;;;18.92;;
51566;SDS011;37657;53.182;5.638;2023-05-07T01:59:41;20.98;;;18.77;;
51566;SDS011;37657;53.182;5.638;2023-05-07T02:02:06;32.05;;;22.05;;
51566;SDS011;37657;53.182;5.638;2023-05-07T02:04:32;23.00;;;18.02;;
51566;SDS011;37657;53.182;5.638;2023-05-07T02:06:58;22.25;;;18.00;;
51566;SDS011;37657;53.182;5.638;2023-05-07T02:09:23;20.63;;;16.75;;
51566;SDS011;37657;53.182;5.638;2023-05-07T02:11:49;21.60;;;17.63;;
51566;SDS011;37657;53.182;5.638;2023-05-07T02:14:14;20.05;;;18.02;;
51566;SDS011;37657;53.182;5.638;2023-05-07T02:16:40;19.45;;;17.38;;
51566;SDS011;37657;53.182;5.638;2023-05-07T02:19:06;21.67;;;19.30;;
51566;SDS011;37657;53.182;5.638;2023-05-07T02:21:32;20.33;;;18.23;;
51566;SDS011;37657;53.182;5.638;2023-05-07T02:23:57;31.45;;;19.00;;
51566;SDS011;37657;53.182;5.638;2023-05-07T02:26:23;19.88;;;18.08;;
51566;SDS011;37657;53.182;5.638;2023-05-07T02:28:48;20.08;;;17.35;;
51566;SDS011;37657;53.182;5.638;2023-05-07T02:31:14;24.15;;;19.63;;
51566;SDS011;37657;53.182;5.638;2023-05-07T02:33:39;25.50;;;20.67;;
51566;SDS011;37657;53.182;5.638;2023-05-07T02:36:06;21.65;;;19.25;;
51566;SDS011;37657;53.182;5.638;2023-05-07T02:38:35;20.27;;;17.83;;
51566;SDS011;37657;53.182;5.638;2023-05-07T02:41:00;27.23;;;21.88;;
51566;SDS011;37657;53.182;5.638;2023-05-07T02:43:26;26.90;;;23.45;;
51566;SDS011;37657;53.182;5.638;2023-05-07T02:46:10;26.08;;;22.48;;
51566;SDS011;37657;53.182;5.638;2023-05-07T02:48:35;22.80;;;20.25;;
51566;SDS011;37657;53.182;5.638;2023-05-07T02:51:01;21.83;;;19.52;;
51566;SDS011;37657;53.182;5.638;2023-05-07T02:53:27;27.63;;;21.58;;
51566;SDS011;37657;53.182;5.638;2023-05-07T02:55:55;25.08;;;22.52;;
51566;SDS011;37657;53.182;5.638;2023-05-07T02:58:22;22.27;;;20.02;;
51566;SDS011;37657;53.182;5.638;2023-05-07T03:00:48;22.50;;;20.23;;
51566;SDS011;37657;53.182;5.638;2023-05-07T03:03:14;23.73;;;21.33;;
51566;SDS011;37657;53.182;5.638;2023-05-07T03:05:40;28.35;;;24.00;;
51566;SDS011;37657;53.182;5.638;2023-05-07T03:08:06;26.08;;;22.52;;
51566;SDS011;37657;53.182;5.638;2023-05-07T03:10:32;26.90;;;22.25;;
51566;SDS011;37657;53.182;5.638;2023-05-07T03:12:58;25.33;;;22.67;;
51566;SDS011;37657;53.182;5.638;2023-05-07T03:15:23;25.63;;;23.05;;
51566;SDS011;37657;53.182;5.638;2023-05-07T03:17:49;25.13;;;22.35;;
51566;SDS011;37657;53.182;5.638;2023-05-07T03:20:15;29.80;;;23.80;;
51566;SDS011;37657;53.182;5.638;2023-05-07T03:22:40;26.98;;;24.15;;
51566;SDS011;37657;53.182;5.638;2023-05-07T03:25:06;28.33;;;23.80;;
51566;SDS011;37657;53.182;5.638;2023-05-07T03:27:33;28.90;;;25.38;;
51566;SDS011;37657;53.182;5.638;2023-05-07T03:29:59;28.15;;;23.45;;
51566;SDS011;37657;53.182;5.638;2023-05-07T03:32:25;31.30;;;25.15;;
51566;SDS011;37657;53.182;5.638;2023-05-07T03:34:50;22.85;;;20.55;;
51566;SDS011;37657;53.182;5.638;2023-05-07T03:37:16;27.55;;;24.73;;
51566;SDS011;37657;53.182;5.638;2023-05-07T03:39:42;30.88;;;21.85;;
51566;SDS011;37657;53.182;5.638;2023-05-07T03:42:07;27.63;;;23.55;;
51566;SDS011;37657;53.182;5.638;2023-05-07T03:44:33;27.52;;;22.52;;
51566;SDS011;37657;53.182;5.638;2023-05-07T03:46:59;25.48;;;22.77;;
51566;SDS011;37657;53.182;5.638;2023-05-07T03:49:24;27.85;;;24.90;;
51566;SDS011;37657;53.182;5.638;2023-05-07T03:51:50;27.20;;;24.30;;
51566;SDS011;37657;53.182;5.638;2023-05-07T03:54:15;30.05;;;23.83;;
51566;SDS011;37657;53.182;5.638;2023-05-07T03:56:41;27.75;;;24.08;;
51566;SDS011;37657;53.182;5.638;2023-05-07T03:59:07;26.40;;;23.75;;
51566;SDS011;37657;53.182;5.638;2023-05-07T04:01:32;34.08;;;26.17;;
51566;SDS011;37657;53.182;5.638;2023-05-07T04:03:58;25.90;;;23.35;;
51566;SDS011;37657;53.182;5.638;2023-05-07T04:06:23;27.92;;;24.98;;
51566;SDS011;37657;53.182;5.638;2023-05-07T04:08:49;26.42;;;23.80;;
51566;SDS011;37657;53.182;5.638;2023-05-07T04:11:15;27.38;;;23.10;;
51566;SDS011;37657;53.182;5.638;2023-05-07T04:13:40;26.05;;;23.30;;
51566;SDS011;37657;53.182;5.638;2023-05-07T04:16:06;28.02;;;23.27;;
51566;SDS011;37657;53.182;5.638;2023-05-07T04:18:31;27.58;;;23.45;;
51566;SDS011;37657;53.182;5.638;2023-05-07T04:20:57;27.13;;;24.55;;
51566;SDS011;37657;53.182;5.638;2023-05-07T04:23:22;25.60;;;22.98;;
51566;SDS011;37657;53.182;5.638;2023-05-07T04:25:48;25.83;;;23.00;;
51566;SDS011;37657;53.182;5.638;2023-05-07T04:28:14;32.42;;;27.27;;
51566;SDS011;37657;53.182;5.638;2023-05-07T04:30:39;31.02;;;24.58;;
51566;SDS011;37657;53.182;5.638;2023-05-07T04:33:06;28.98;;;26.17;;
51566;SDS011;37657;53.182;5.638;2023-05-07T04:35:32;28.63;;;25.55;;
51566;SDS011;37657;53.182;5.638;2023-05-07T04:37:57;34.45;;;25.90;;
51566;SDS011;37657;53.182;5.638;2023-05-07T04:40:23;33.10;;;27.13;;
51566;SDS011;37657;53.182;5.638;2023-05-07T04:42:48;33.80;;;28.15;;
51566;SDS011;37657;53.182;5.638;2023-05-07T04:45:14;38.38;;;28.25;;
51566;SDS011;37657;53.182;5.638;2023-05-07T04:47:40;38.05;;;28.98;;
51566;SDS011;37657;53.182;5.638;2023-05-07T04:50:08;30.90;;;26.77;;
51566;SDS011;37657;53.182;5.638;2023-05-07T04:52:34;41.13;;;28.02;;
51566;SDS011;37657;53.182;5.638;2023-05-07T04:55:00;32.70;;;27.17;;
51566;SDS011;37657;53.182;5.638;2023-05-07T04:57:26;30.08;;;26.80;;
51566;SDS011;37657;53.182;5.638;2023-05-07T04:59:52;27.05;;;24.42;;
51566;SDS011;37657;53.182;5.638;2023-05-07T05:02:18;28.50;;;25.38;;
51566;SDS011;37657;53.182;5.638;2023-05-07T05:04:44;32.17;;;27.55;;
51566;SDS011;37657;53.182;5.638;2023-05-07T05:07:10;31.33;;;28.00;;
51566;SDS011;37657;53.182;5.638;2023-05-07T05:09:35;32.33;;;29.05;;
51566;SDS011;37657;53.182;5.638;2023-05-07T05:12:01;31.77;;;28.30;;
51566;SDS011;37657;53.182;5.638;2023-05-07T05:14:26;34.03;;;28.67;;
51566;SDS011;37657;53.182;5.638;2023-05-07T05:16:52;34.78;;;29.48;;
51566;SDS011;37657;53.182;5.638;2023-05-07T05:19:17;36.13;;;29.92;;
51566;SDS011;37657;53.182;5.638;2023-05-07T05:21:43;34.47;;;29.23;;
51566;SDS011;37657;53.182;5.638;2023-05-07T05:24:09;32.42;;;28.23;;
51566;SDS011;37657;53.182;5.638;2023-05-07T05:26:34;36.38;;;28.98;;
51566;SDS011;37657;53.182;5.638;2023-05-07T05:29:00;37.85;;;30.58;;
51566;SDS011;37657;53.182;5.638;2023-05-07T05:31:25;33.70;;;29.00;;
51566;SDS011;37657;53.182;5.638;2023-05-07T05:33:51;41.92;;;31.42;;
51566;SDS011;37657;53.182;5.638;2023-05-07T05:36:17;35.92;;;29.10;;
51566;SDS011;37657;53.182;5.638;2023-05-07T05:38:42;32.47;;;29.08;;
51566;SDS011;37657;53.182;5.638;2023-05-07T05:41:09;36.58;;;32.78;;
51566;SDS011;37657;53.182;5.638;2023-05-07T05:43:35;33.17;;;29.02;;
51566;SDS011;37657;53.182;5.638;2023-05-07T05:46:00;34.80;;;30.08;;
51566;SDS011;37657;53.182;5.638;2023-05-07T05:48:26;34.75;;;30.17;;
51566;SDS011;37657;53.182;5.638;2023-05-07T05:50:52;40.83;;;31.23;;
51566;SDS011;37657;53.182;5.638;2023-05-07T05:53:17;35.22;;;29.58;;
51566;SDS011;37657;53.182;5.638;2023-05-07T05:55:43;41.08;;;34.22;;
51566;SDS011;37657;53.182;5.638;2023-05-07T05:58:09;44.35;;;31.75;;
51566;SDS011;37657;53.182;5.638;2023-05-07T06:00:34;39.50;;;33.67;;
51566;SDS011;37657;53.182;5.638;2023-05-07T06:03:00;38.55;;;34.03;;
51566;SDS011;37657;53.182;5.638;2023-05-07T06:05:26;40.20;;;31.38;;
51566;SDS011;37657;53.182;5.638;2023-05-07T06:07:51;38.33;;;29.60;;
51566;SDS011;37657;53.182;5.638;2023-05-07T06:10:17;43.42;;;33.80;;
51566;SDS011;37657;53.182;5.638;2023-05-07T06:12:43;45.35;;;33.88;;
51566;SDS011;37657;53.182;5.638;2023-05-07T06:15:09;36.72;;;31.40;;
51566;SDS011;37657;53.182;5.638;2023-05-07T06:17:35;43.03;;;31.75;;
51566;SDS011;37657;53.182;5.638;2023-05-07T06:20:01;34.85;;;29.08;;
51566;SDS011;37657;53.182;5.638;2023-05-07T06:22:27;44.50;;;34.22;;
51566;SDS011;37657;53.182;5.638;2023-05-07T06:24:53;36.92;;;31.50;;
51566;SDS011;37657;53.182;5.638;2023-05-07T06:27:19;33.55;;;29.35;;
51566;SDS011;37657;53.182;5.638;2023-05-07T06:29:44;40.72;;;32.47;;
51566;SDS011;37657;53.182;5.638;2023-05-07T06:32:10;43.55;;;33.75;;
51566;SDS011;37657;53.182;5.638;2023-05-07T06:34:37;35.70;;;31.85;;
51566;SDS011;37657;53.182;5.638;2023-05-07T06:37:04;37.15;;;29.88;;
51566;SDS011;37657;53.182;5.638;2023-05-07T06:39:29;31.00;;;27.58;;
51566;SDS011;37657;53.182;5.638;2023-05-07T06:41:55;38.67;;;29.27;;
51566;SDS011;37657;53.182;5.638;2023-05-07T06:44:21;35.22;;;31.42;;
51566;SDS011;37657;53.182;5.638;2023-05-07T06:46:47;39.83;;;30.48;;
51566;SDS011;37657;53.182;5.638;2023-05-07T06:49:12;38.50;;;29.95;;
51566;SDS011;37657;53.182;5.638;2023-05-07T06:51:39;31.02;;;27.30;;
51566;SDS011;37657;53.182;5.638;2023-05-07T06:54:04;32.28;;;28.88;;
51566;SDS011;37657;53.182;5.638;2023-05-07T06:56:30;32.83;;;29.33;;
51566;SDS011;37657;53.182;5.638;2023-05-07T06:58:57;40.47;;;31.23;;
51566;SDS011;37657;53.182;5.638;2023-05-07T07:01:22;33.45;;;28.35;;
51566;SDS011;37657;53.182;5.638;2023-05-07T07:03:48;32.03;;;28.05;;
51566;SDS011;37657;53.182;5.638;2023-05-07T07:06:13;38.92;;;28.98;;
51566;SDS011;37657;53.182;5.638;2023-05-07T07:08:39;33.58;;;29.90;;
51566;SDS011;37657;53.182;5.638;2023-05-07T07:11:05;30.45;;;27.25;;
51566;SDS011;37657;53.182;5.638;2023-05-07T07:13:31;33.63;;;27.75;;
51566;SDS011;37657;53.182;5.638;2023-05-07T07:15:56;33.75;;;27.92;;
51566;SDS011;37657;53.182;5.638;2023-05-07T07:18:22;33.75;;;29.67;;
51566;SDS011;37657;53.182;5.638;2023-05-07T07:20:48;36.92;;;28.10;;
51566;SDS011;37657;53.182;5.638;2023-05-07T07:23:13;28.23;;;25.33;;
51566;SDS011;37657;53.182;5.638;2023-05-07T07:25:39;29.27;;;26.02;;
51566;SDS011;37657;53.182;5.638;2023-05-07T07:28:05;31.08;;;26.13;;
51566;SDS011;37657;53.182;5.638;2023-05-07T07:30:30;32.88;;;29.20;;
51566;SDS011;37657;53.182;5.638;2023-05-07T07:32:56;33.25;;;28.88;;
51566;SDS011;37657;53.182;5.638;2023-05-07T07:35:27;28.77;;;25.80;;
51566;SDS011;37657;53.182;5.638;2023-05-07T07:37:53;29.33;;;25.55;;
51566;SDS011;37657;53.182;5.638;2023-05-07T07:40:19;43.25;;;29.33;;
51566;SDS011;37657;53.182;5.638;2023-05-07T07:42:44;29.05;;;25.98;;
51566;SDS011;37657;53.182;5.638;2023-05-07T07:45:10;28.73;;;25.65;;
51566;SDS011;37657;53.182;5.638;2023-05-07T07:47:36;32.58;;;25.88;;
51566;SDS011;37657;53.182;5.638;2023-05-07T07:50:02;28.23;;;25.27;;
51566;SDS011;37657;53.182;5.638;2023-05-07T07:52:27;28.77;;;25.67;;
51566;SDS011;37657;53.182;5.638;2023-05-07T07:54:53;26.45;;;23.67;;
51566;SDS011;37657;53.182;5.638;2023-05-07T07:57:18;27.75;;;24.17;;
51566;SDS011;37657;53.182;5.638;2023-05-07T07:59:44;30.50;;;26.55;;
51566;SDS011;37657;53.182;5.638;2023-05-07T08:02:09;32.78;;;26.15;;
51566;SDS011;37657;53.182;5.638;2023-05-07T08:04:35;29.52;;;26.45;;
51566;SDS011;37657;53.182;5.638;2023-05-07T08:07:02;30.98;;;27.20;;
51566;SDS011;37657;53.182;5.638;2023-05-07T08:09:28;28.83;;;25.67;;
51566;SDS011;37657;53.182;5.638;2023-05-07T08:11:53;30.05;;;26.58;;
51566;SDS011;37657;53.182;5.638;2023-05-07T08:14:19;28.98;;;25.50;;
51566;SDS011;37657;53.182;5.638;2023-05-07T08:16:44;27.95;;;25.17;;
51566;SDS011;37657;53.182;5.638;2023-05-07T08:19:10;26.83;;;24.02;;
51566;SDS011;37657;53.182;5.638;2023-05-07T08:21:38;31.00;;;25.13;;
51566;SDS011;37657;53.182;5.638;2023-05-07T08:24:04;33.65;;;25.70;;
51566;SDS011;37657;53.182;5.638;2023-05-07T08:26:30;28.92;;;23.20;;
51566;SDS011;37657;53.182;5.638;2023-05-07T08:28:55;30.40;;;25.20;;
51566;SDS011;37657;53.182;5.638;2023-05-07T08:31:21;28.10;;;25.20;;
51566;SDS011;37657;53.182;5.638;2023-05-07T08:33:46;26.55;;;23.80;;
51566;SDS011;37657;53.182;5.638;2023-05-07T08:36:12;30.48;;;24.30;;
51566;SDS011;37657;53.182;5.638;2023-05-07T08:38:38;32.05;;;26.50;;
51566;SDS011;37657;53.182;5.638;2023-05-07T08:41:05;27.88;;;24.48;;
51566;SDS011;37657;53.182;5.638;2023-05-07T08:43:32;29.80;;;25.05;;
51566;SDS011;37657;53.182;5.638;2023-05-07T08:46:01;27.77;;;23.23;;
51566;SDS011;37657;53.182;5.638;2023-05-07T08:48:27;33.00;;;24.83;;
51566;SDS011;37657;53.182;5.638;2023-05-07T08:50:57;30.75;;;25.90;;
51566;SDS011;37657;53.182;5.638;2023-05-07T08:53:23;22.75;;;20.55;;
51566;SDS011;37657;53.182;5.638;2023-05-07T08:55:48;30.55;;;22.75;;
51566;SDS011;37657;53.182;5.638;2023-05-07T08:58:14;27.45;;;24.58;;
51566;SDS011;37657;53.182;5.638;2023-05-07T09:00:40;29.08;;;24.95;;
51566;SDS011;37657;53.182;5.638;2023-05-07T09:03:06;29.25;;;22.85;;
51566;SDS011;37657;53.182;5.638;2023-05-07T09:05:32;29.15;;;26.10;;
51566;SDS011;37657;53.182;5.638;2023-05-07T09:08:04;31.15;;;24.10;;
51566;SDS011;37657;53.182;5.638;2023-05-07T09:10:35;27.90;;;25.08;;
51566;SDS011;37657;53.182;5.638;2023-05-07T09:13:00;27.15;;;24.20;;
51566;SDS011;37657;53.182;5.638;2023-05-07T09:15:28;27.83;;;22.38;;
51566;SDS011;37657;53.182;5.638;2023-05-07T09:17:53;26.75;;;23.92;;
51566;SDS011;37657;53.182;5.638;2023-05-07T09:20:19;31.50;;;25.50;;
51566;SDS011;37657;53.182;5.638;2023-05-07T09:22:45;32.20;;;24.92;;
51566;SDS011;37657;53.182;5.638;2023-05-07T09:25:11;25.10;;;22.52;;
51566;SDS011;37657;53.182;5.638;2023-05-07T09:27:36;27.40;;;24.27;;
51566;SDS011;37657;53.182;5.638;2023-05-07T09:30:08;26.42;;;22.42;;
51566;SDS011;37657;53.182;5.638;2023-05-07T09:32:35;26.40;;;23.05;;
51566;SDS011;37657;53.182;5.638;2023-05-07T09:35:03;26.80;;;23.40;;
51566;SDS011;37657;53.182;5.638;2023-05-07T09:37:30;25.35;;;22.65;;
51566;SDS011;37657;53.182;5.638;2023-05-07T09:39:57;26.33;;;23.55;;
51566;SDS011;37657;53.182;5.638;2023-05-07T09:42:26;27.10;;;23.08;;
51566;SDS011;37657;53.182;5.638;2023-05-07T09:44:52;28.63;;;22.77;;
51566;SDS011;37657;53.182;5.638;2023-05-07T09:47:18;28.95;;;24.52;;
51566;SDS011;37657;53.182;5.638;2023-05-07T09:49:46;30.83;;;25.20;;
51566;SDS011;37657;53.182;5.638;2023-05-07T09:52:13;27.08;;;22.75;;
51566;SDS011;37657;53.182;5.638;2023-05-07T09:54:39;26.85;;;22.80;;
51566;SDS011;37657;53.182;5.638;2023-05-07T09:57:08;31.15;;;25.70;;
51566;SDS011;37657;53.182;5.638;2023-05-07T09:59:38;29.75;;;23.88;;
51566;SDS011;37657;53.182;5.638;2023-05-07T10:02:07;28.63;;;22.77;;
51566;SDS011;37657;53.182;5.638;2023-05-07T10:04:35;24.00;;;21.65;;
51566;SDS011;37657;53.182;5.638;2023-05-07T10:07:01;31.40;;;26.30;;
51566;SDS011;37657;53.182;5.638;2023-05-07T10:09:29;28.00;;;25.13;;
51566;SDS011;37657;53.182;5.638;2023-05-07T10:11:56;30.02;;;26.90;;
51566;SDS011;37657;53.182;5.638;2023-05-07T10:14:22;29.25;;;26.05;;
51566;SDS011;37657;53.182;5.638;2023-05-07T10:16:48;27.70;;;24.88;;
51566;SDS011;37657;53.182;5.638;2023-05-07T10:19:14;28.88;;;25.77;;
51566;SDS011;37657;53.182;5.638;2023-05-07T10:21:44;27.67;;;24.83;;
51566;SDS011;37657;53.182;5.638;2023-05-07T10:24:19;26.65;;;23.35;;
51566;SDS011;37657;53.182;5.638;2023-05-07T10:26:54;25.27;;;22.17;;
51566;SDS011;37657;53.182;5.638;2023-05-07T10:29:29;27.30;;;24.50;;
51566;SDS011;37657;53.182;5.638;2023-05-07T10:32:11;30.63;;;25.73;;
51566;SDS011;37657;53.182;5.638;2023-05-07T10:34:58;25.05;;;21.58;;
51566;SDS011;37657;53.182;5.638;2023-05-07T10:37:27;29.80;;;25.50;;
51566;SDS011;37657;53.182;5.638;2023-05-07T10:39:54;27.80;;;22.30;;
51566;SDS011;37657;53.182;5.638;2023-05-07T10:42:19;27.17;;;23.77;;
51566;SDS011;37657;53.182;5.638;2023-05-07T10:44:45;27.73;;;23.52;;
51566;SDS011;37657;53.182;5.638;2023-05-07T10:47:12;27.60;;;22.80;;
51566;SDS011;37657;53.182;5.638;2023-05-07T10:52:11;24.58;;;20.90;;
51566;SDS011;37657;53.182;5.638;2023-05-07T10:54:41;28.20;;;25.23;;
51566;SDS011;37657;53.182;5.638;2023-05-07T11:00:03;30.92;;;26.27;;
51566;SDS011;37657;53.182;5.638;2023-05-07T11:05:24;28.55;;;22.83;;
51566;SDS011;37657;53.182;5.638;2023-05-07T11:07:54;27.67;;;23.55;;
51566;SDS011;37657;53.182;5.638;2023-05-07T11:10:20;34.38;;;22.83;;
51566;SDS011;37657;53.182;5.638;2023-05-07T11:12:47;30.75;;;24.80;;
51566;SDS011;37657;53.182;5.638;2023-05-07T11:15:14;28.33;;;25.33;;
51566;SDS011;37657;53.182;5.638;2023-05-07T11:17:52;29.10;;;24.02;;
51566;SDS011;37657;53.182;5.638;2023-05-07T11:20:19;29.33;;;25.33;;
51566;SDS011;37657;53.182;5.638;2023-05-07T11:22:45;30.67;;;25.05;;
51566;SDS011;37657;53.182;5.638;2023-05-07T11:25:14;26.63;;;23.92;;
51566;SDS011;37657;53.182;5.638;2023-05-07T11:27:43;26.45;;;23.25;;
51566;SDS011;37657;53.182;5.638;2023-05-07T11:30:09;28.05;;;24.92;;
51566;SDS011;37657;53.182;5.638;2023-05-07T11:32:36;25.23;;;22.45;;
51566;SDS011;37657;53.182;5.638;2023-05-07T11:35:02;31.98;;;26.52;;
51566;SDS011;37657;53.182;5.638;2023-05-07T11:37:27;27.77;;;23.55;;
51566;SDS011;37657;53.182;5.638;2023-05-07T11:40:04;24.48;;;21.85;;
51566;SDS011;37657;53.182;5.638;2023-05-07T11:42:33;29.40;;;26.42;;
51566;SDS011;37657;53.182;5.638;2023-05-07T11:45:02;30.40;;;24.60;;
51566;SDS011;37657;53.182;5.638;2023-05-07T11:47:32;25.27;;;22.58;;
51566;SDS011;37657;53.182;5.638;2023-05-07T11:50:02;22.45;;;20.20;;
51566;SDS011;37657;53.182;5.638;2023-05-07T11:52:32;25.58;;;22.52;;
51566;SDS011;37657;53.182;5.638;2023-05-07T11:54:58;25.13;;;22.52;;
51566;SDS011;37657;53.182;5.638;2023-05-07T11:57:25;27.08;;;24.30;;
51566;SDS011;37657;53.182;5.638;2023-05-07T12:02:20;26.65;;;23.75;;
51566;SDS011;37657;53.182;5.638;2023-05-07T12:04:46;25.77;;;22.40;;
51566;SDS011;37657;53.182;5.638;2023-05-07T12:07:12;26.98;;;23.90;;
51566;SDS011;37657;53.182;5.638;2023-05-07T12:09:39;27.95;;;24.77;;
51566;SDS011;37657;53.182;5.638;2023-05-07T12:12:05;29.70;;;23.42;;
51566;SDS011;37657;53.182;5.638;2023-05-07T12:14:31;27.85;;;22.92;;
51566;SDS011;37657;53.182;5.638;2023-05-07T12:16:57;26.02;;;23.20;;
51566;SDS011;37657;53.182;5.638;2023-05-07T12:19:27;28.38;;;23.20;;
51566;SDS011;37657;53.182;5.638;2023-05-07T12:21:54;26.55;;;23.73;;
51566;SDS011;37657;53.182;5.638;2023-05-07T12:24:21;28.48;;;21.58;;
51566;SDS011;37657;53.182;5.638;2023-05-07T12:26:47;28.17;;;21.25;;
51566;SDS011;37657;53.182;5.638;2023-05-07T12:29:13;32.13;;;25.20;;
51566;SDS011;37657;53.182;5.638;2023-05-07T12:31:42;23.77;;;20.88;;
51566;SDS011;37657;53.182;5.638;2023-05-07T12:34:08;28.85;;;22.25;;
51566;SDS011;37657;53.182;5.638;2023-05-07T12:36:36;29.33;;;23.17;;
51566;SDS011;37657;53.182;5.638;2023-05-07T12:39:04;30.85;;;25.58;;
51566;SDS011;37657;53.182;5.638;2023-05-07T12:41:36;28.92;;;23.08;;
51566;SDS011;37657;53.182;5.638;2023-05-07T12:44:18;26.33;;;22.80;;
51566;SDS011;37657;53.182;5.638;2023-05-07T12:46:43;29.00;;;21.55;;
51566;SDS011;37657;53.182;5.638;2023-05-07T12:49:11;29.48;;;23.48;;
51566;SDS011;37657;53.182;5.638;2023-05-07T12:51:37;23.80;;;21.27;;
51566;SDS011;37657;53.182;5.638;2023-05-07T12:54:03;26.45;;;23.17;;
51566;SDS011;37657;53.182;5.638;2023-05-07T12:56:30;23.42;;;20.83;;
51566;SDS011;37657;53.182;5.638;2023-05-07T12:58:59;22.17;;;19.67;;
51566;SDS011;37657;53.182;5.638;2023-05-07T13:01:28;28.40;;;22.63;;
51566;SDS011;37657;53.182;5.638;2023-05-07T13:03:55;24.10;;;21.40;;
51566;SDS011;37657;53.182;5.638;2023-05-07T13:06:25;28.30;;;24.08;;
51566;SDS011;37657;53.182;5.638;2023-05-07T13:08:51;25.63;;;20.80;;
51566;SDS011;37657;53.182;5.638;2023-05-07T13:11:16;32.33;;;21.35;;
51566;SDS011;37657;53.182;5.638;2023-05-07T13:13:42;24.00;;;21.13;;
51566;SDS011;37657;53.182;5.638;2023-05-07T13:16:08;28.55;;;20.38;;
51566;SDS011;37657;53.182;5.638;2023-05-07T13:18:35;24.55;;;18.90;;
51566;SDS011;37657;53.182;5.638;2023-05-07T13:21:03;21.00;;;18.77;;
51566;SDS011;37657;53.182;5.638;2023-05-07T13:23:29;21.73;;;19.42;;
51566;SDS011;37657;53.182;5.638;2023-05-07T13:25:55;21.05;;;18.90;;
51566;SDS011;37657;53.182;5.638;2023-05-07T13:28:21;20.15;;;18.08;;
51566;SDS011;37657;53.182;5.638;2023-05-07T13:30:47;21.15;;;18.88;;
51566;SDS011;37657;53.182;5.638;2023-05-07T13:33:13;22.92;;;18.95;;
51566;SDS011;37657;53.182;5.638;2023-05-07T13:35:39;20.50;;;18.30;;
51566;SDS011;37657;53.182;5.638;2023-05-07T13:38:05;21.25;;;18.98;;
51566;SDS011;37657;53.182;5.638;2023-05-07T13:40:31;24.63;;;20.55;;
51566;SDS011;37657;53.182;5.638;2023-05-07T13:42:57;20.88;;;18.75;;
51566;SDS011;37657;53.182;5.638;2023-05-07T13:45:23;21.23;;;19.02;;
51566;SDS011;37657;53.182;5.638;2023-05-07T13:47:50;21.60;;;19.23;;
51566;SDS011;37657;53.182;5.638;2023-05-07T13:50:16;21.10;;;18.77;;
51566;SDS011;37657;53.182;5.638;2023-05-07T13:52:42;21.75;;;18.98;;
51566;SDS011;37657;53.182;5.638;2023-05-07T13:55:15;21.50;;;17.63;;
51566;SDS011;37657;53.182;5.638;2023-05-07T13:57:44;23.42;;;19.55;;
51566;SDS011;37657;53.182;5.638;2023-05-07T14:00:10;20.15;;;18.35;;
51566;SDS011;37657;53.182;5.638;2023-05-07T14:02:36;20.08;;;18.00;;
51566;SDS011;37657;53.182;5.638;2023-05-07T14:05:02;24.98;;;21.52;;
51566;SDS011;37657;53.182;5.638;2023-05-07T14:07:27;20.23;;;17.88;;
51566;SDS011;37657;53.182;5.638;2023-05-07T14:09:54;19.17;;;17.27;;
51566;SDS011;37657;53.182;5.638;2023-05-07T14:12:20;19.05;;;17.25;;
51566;SDS011;37657;53.182;5.638;2023-05-07T14:14:45;21.27;;;18.67;;
51566;SDS011;37657;53.182;5.638;2023-05-07T14:17:12;22.58;;;20.17;;
51566;SDS011;37657;53.182;5.638;2023-05-07T14:19:37;22.98;;;19.92;;
51566;SDS011;37657;53.182;5.638;2023-05-07T14:22:03;25.70;;;19.52;;
51566;SDS011;37657;53.182;5.638;2023-05-07T14:24:28;19.70;;;17.70;;
51566;SDS011;37657;53.182;5.638;2023-05-07T14:26:54;23.52;;;21.02;;
51566;SDS011;37657;53.182;5.638;2023-05-07T14:29:20;20.17;;;17.80;;